sensor_id;sensor_type;location;lat;lon;timestamp;P1;durP1;ratioP1;P2;durP2;ratioP2
16822;SDS011;8528;49.976;11.858;2023-03-01T00:01:02;20.67;;;10.33;;
16822;SDS011;8528;49.976;11.858;2023-03-01T00:03:34;19.13;;;10.50;;
16822;SDS011;8528;49.976;11.858;2023-03-01T00:06:01;24.07;;;12.50;;
16822;SDS011;8528;49.976;11.858;2023-03-01T00:08:28;24.10;;;12.33;;
16822;SDS011;8528;49.976;11.858;2023-03-01T00:11:00;22.40;;;11.07;;
16822;SDS011;8528;49.976;11.858;2023-03-01T00:13:31;25.57;;;11.60;;
16822;SDS011;8528;49.976;11.858;2023-03-01T00:15:58;24.63;;;12.53;;
16822;SDS011;8528;49.976;11.858;2023-03-01T00:18:25;30.40;;;14.60;;
16822;SDS011;8528;49.976;11.858;2023-03-01T00:20:52;49.40;;;19.20;;
16822;SDS011;8528;49.976;11.858;2023-03-01T00:23:21;32.30;;;14.70;;
16822;SDS011;8528;49.976;11.858;2023-03-01T00:25:49;23.90;;;11.07;;
16822;SDS011;8528;49.976;11.858;2023-03-01T00:28:16;23.17;;;12.13;;
16822;SDS011;8528;49.976;11.858;2023-03-01T00:30:43;27.10;;;13.50;;
16822;SDS011;8528;49.976;11.858;2023-03-01T00:33:10;27.43;;;12.97;;
16822;SDS011;8528;49.976;11.858;2023-03-01T00:35:38;23.07;;;11.00;;
16822;SDS011;8528;49.976;11.858;2023-03-01T00:38:05;22.10;;;11.37;;
16822;SDS011;8528;49.976;11.858;2023-03-01T00:40:33;24.20;;;11.23;;
16822;SDS011;8528;49.976;11.858;2023-03-01T00:43:01;22.20;;;12.10;;
16822;SDS011;8528;49.976;11.858;2023-03-01T00:45:28;23.17;;;11.57;;
16822;SDS011;8528;49.976;11.858;2023-03-01T00:47:57;22.57;;;11.73;;
16822;SDS011;8528;49.976;11.858;2023-03-01T00:50:23;20.60;;;11.30;;
16822;SDS011;8528;49.976;11.858;2023-03-01T00:52:54;20.80;;;10.43;;
16822;SDS011;8528;49.976;11.858;2023-03-01T00:55:22;18.10;;;10.60;;
16822;SDS011;8528;49.976;11.858;2023-03-01T00:57:49;21.40;;;10.30;;
16822;SDS011;8528;49.976;11.858;2023-03-01T01:00:16;21.00;;;11.17;;
16822;SDS011;8528;49.976;11.858;2023-03-01T01:02:43;22.87;;;12.00;;
16822;SDS011;8528;49.976;11.858;2023-03-01T01:05:10;22.67;;;12.87;;
16822;SDS011;8528;49.976;11.858;2023-03-01T01:07:37;21.27;;;11.33;;
16822;SDS011;8528;49.976;11.858;2023-03-01T01:10:04;19.67;;;11.37;;
16822;SDS011;8528;49.976;11.858;2023-03-01T01:12:32;20.03;;;10.63;;
16822;SDS011;8528;49.976;11.858;2023-03-01T01:15:01;20.80;;;10.67;;
16822;SDS011;8528;49.976;11.858;2023-03-01T01:17:28;20.23;;;10.33;;
16822;SDS011;8528;49.976;11.858;2023-03-01T01:19:55;23.77;;;11.20;;
16822;SDS011;8528;49.976;11.858;2023-03-01T01:22:21;20.43;;;10.17;;
16822;SDS011;8528;49.976;11.858;2023-03-01T01:24:48;20.67;;;10.73;;
16822;SDS011;8528;49.976;11.858;2023-03-01T01:27:15;19.43;;;10.17;;
16822;SDS011;8528;49.976;11.858;2023-03-01T01:29:42;21.63;;;11.00;;
16822;SDS011;8528;49.976;11.858;2023-03-01T01:32:08;17.93;;;9.97;;
16822;SDS011;8528;49.976;11.858;2023-03-01T01:34:35;20.43;;;10.13;;
16822;SDS011;8528;49.976;11.858;2023-03-01T01:37:02;20.50;;;10.23;;
16822;SDS011;8528;49.976;11.858;2023-03-01T01:39:29;22.90;;;11.07;;
16822;SDS011;8528;49.976;11.858;2023-03-01T01:41:56;22.67;;;10.07;;
16822;SDS011;8528;49.976;11.858;2023-03-01T01:44:24;20.60;;;11.03;;
16822;SDS011;8528;49.976;11.858;2023-03-01T01:47:03;17.47;;;9.60;;
16822;SDS011;8528;49.976;11.858;2023-03-01T01:49:41;21.50;;;11.20;;
16822;SDS011;8528;49.976;11.858;2023-03-01T01:52:14;19.50;;;10.00;;
16822;SDS011;8528;49.976;11.858;2023-03-01T01:57:20;19.77;;;9.43;;
16822;SDS011;8528;49.976;11.858;2023-03-01T01:59:53;21.50;;;10.40;;
16822;SDS011;8528;49.976;11.858;2023-03-01T02:02:25;23.00;;;11.23;;
16822;SDS011;8528;49.976;11.858;2023-03-01T02:04:53;24.33;;;11.90;;
16822;SDS011;8528;49.976;11.858;2023-03-01T02:07:29;21.70;;;10.73;;
16822;SDS011;8528;49.976;11.858;2023-03-01T02:09:56;23.93;;;10.90;;
16822;SDS011;8528;49.976;11.858;2023-03-01T02:12:24;21.03;;;10.33;;
16822;SDS011;8528;49.976;11.858;2023-03-01T02:14:51;20.93;;;10.40;;
16822;SDS011;8528;49.976;11.858;2023-03-01T02:17:18;21.67;;;10.77;;
16822;SDS011;8528;49.976;11.858;2023-03-01T02:20:04;21.33;;;11.10;;
16822;SDS011;8528;49.976;11.858;2023-03-01T02:22:56;21.77;;;11.33;;
16822;SDS011;8528;49.976;11.858;2023-03-01T02:28:29;20.90;;;10.40;;
16822;SDS011;8528;49.976;11.858;2023-03-01T02:31:04;23.27;;;11.23;;
16822;SDS011;8528;49.976;11.858;2023-03-01T02:33:51;21.97;;;11.93;;
16822;SDS011;8528;49.976;11.858;2023-03-01T02:36:21;22.90;;;11.53;;
16822;SDS011;8528;49.976;11.858;2023-03-01T02:38:56;21.93;;;10.57;;
16822;SDS011;8528;49.976;11.858;2023-03-01T02:41:25;24.83;;;12.20;;
16822;SDS011;8528;49.976;11.858;2023-03-01T02:43:54;28.50;;;13.20;;
16822;SDS011;8528;49.976;11.858;2023-03-01T02:46:23;26.43;;;12.43;;
16822;SDS011;8528;49.976;11.858;2023-03-01T02:48:52;25.23;;;12.17;;
16822;SDS011;8528;49.976;11.858;2023-03-01T02:51:37;27.40;;;12.60;;
16822;SDS011;8528;49.976;11.858;2023-03-01T02:54:23;26.57;;;12.93;;
16822;SDS011;8528;49.976;11.858;2023-03-01T02:56:54;24.97;;;11.67;;
16822;SDS011;8528;49.976;11.858;2023-03-01T02:59:24;22.57;;;10.93;;
16822;SDS011;8528;49.976;11.858;2023-03-01T03:01:55;20.73;;;11.53;;
16822;SDS011;8528;49.976;11.858;2023-03-01T03:04:22;21.53;;;12.20;;
16822;SDS011;8528;49.976;11.858;2023-03-01T03:06:49;24.73;;;11.43;;
16822;SDS011;8528;49.976;11.858;2023-03-01T03:09:17;24.30;;;12.73;;
16822;SDS011;8528;49.976;11.858;2023-03-01T03:11:44;23.23;;;12.10;;
16822;SDS011;8528;49.976;11.858;2023-03-01T03:14:12;25.50;;;12.23;;
16822;SDS011;8528;49.976;11.858;2023-03-01T03:16:44;24.53;;;12.33;;
16822;SDS011;8528;49.976;11.858;2023-03-01T03:19:13;25.50;;;12.70;;
16822;SDS011;8528;49.976;11.858;2023-03-01T03:21:43;26.77;;;12.47;;
16822;SDS011;8528;49.976;11.858;2023-03-01T03:24:09;24.40;;;11.43;;
16822;SDS011;8528;49.976;11.858;2023-03-01T03:26:36;23.60;;;12.13;;
16822;SDS011;8528;49.976;11.858;2023-03-01T03:29:03;27.03;;;12.60;;
16822;SDS011;8528;49.976;11.858;2023-03-01T03:31:30;24.73;;;12.10;;
16822;SDS011;8528;49.976;11.858;2023-03-01T03:33:57;25.50;;;12.53;;
16822;SDS011;8528;49.976;11.858;2023-03-01T03:36:25;27.83;;;13.13;;
16822;SDS011;8528;49.976;11.858;2023-03-01T03:38:52;26.23;;;12.47;;
16822;SDS011;8528;49.976;11.858;2023-03-01T03:41:19;27.10;;;12.87;;
16822;SDS011;8528;49.976;11.858;2023-03-01T03:43:45;26.67;;;12.20;;
16822;SDS011;8528;49.976;11.858;2023-03-01T03:46:12;24.67;;;13.03;;
16822;SDS011;8528;49.976;11.858;2023-03-01T03:48:40;28.00;;;12.60;;
16822;SDS011;8528;49.976;11.858;2023-03-01T03:51:12;25.10;;;11.77;;
16822;SDS011;8528;49.976;11.858;2023-03-01T03:53:41;24.30;;;12.70;;
16822;SDS011;8528;49.976;11.858;2023-03-01T03:56:08;29.20;;;13.30;;
16822;SDS011;8528;49.976;11.858;2023-03-01T03:58:35;22.87;;;11.43;;
16822;SDS011;8528;49.976;11.858;2023-03-01T04:01:02;25.17;;;12.33;;
16822;SDS011;8528;49.976;11.858;2023-03-01T04:03:29;23.87;;;12.67;;
16822;SDS011;8528;49.976;11.858;2023-03-01T04:05:58;24.03;;;11.90;;
16822;SDS011;8528;49.976;11.858;2023-03-01T04:08:26;27.30;;;12.93;;
16822;SDS011;8528;49.976;11.858;2023-03-01T04:10:58;22.97;;;12.63;;
16822;SDS011;8528;49.976;11.858;2023-03-01T04:13:47;22.47;;;12.17;;
16822;SDS011;8528;49.976;11.858;2023-03-01T04:16:14;23.07;;;12.73;;
16822;SDS011;8528;49.976;11.858;2023-03-01T04:18:41;28.23;;;13.53;;
16822;SDS011;8528;49.976;11.858;2023-03-01T04:21:08;25.90;;;13.30;;
16822;SDS011;8528;49.976;11.858;2023-03-01T04:23:34;23.80;;;11.47;;
16822;SDS011;8528;49.976;11.858;2023-03-01T04:26:02;26.60;;;13.00;;
16822;SDS011;8528;49.976;11.858;2023-03-01T04:28:37;25.23;;;11.70;;
16822;SDS011;8528;49.976;11.858;2023-03-01T04:31:08;27.03;;;12.60;;
16822;SDS011;8528;49.976;11.858;2023-03-01T04:33:40;26.37;;;13.60;;
16822;SDS011;8528;49.976;11.858;2023-03-01T04:36:08;28.03;;;13.67;;
16822;SDS011;8528;49.976;11.858;2023-03-01T04:38:37;26.40;;;12.13;;
16822;SDS011;8528;49.976;11.858;2023-03-01T04:41:05;22.87;;;12.87;;
16822;SDS011;8528;49.976;11.858;2023-03-01T04:43:33;25.73;;;12.60;;
16822;SDS011;8528;49.976;11.858;2023-03-01T04:46:04;27.20;;;13.70;;
16822;SDS011;8528;49.976;11.858;2023-03-01T04:48:37;23.23;;;12.50;;
16822;SDS011;8528;49.976;11.858;2023-03-01T04:51:06;26.57;;;13.57;;
16822;SDS011;8528;49.976;11.858;2023-03-01T04:53:34;30.93;;;13.80;;
16822;SDS011;8528;49.976;11.858;2023-03-01T04:56:04;25.73;;;14.27;;
16822;SDS011;8528;49.976;11.858;2023-03-01T04:58:32;24.87;;;12.83;;
16822;SDS011;8528;49.976;11.858;2023-03-01T05:00:58;25.50;;;12.63;;
16822;SDS011;8528;49.976;11.858;2023-03-01T05:03:25;32.43;;;13.77;;
16822;SDS011;8528;49.976;11.858;2023-03-01T05:05:52;30.43;;;13.90;;
16822;SDS011;8528;49.976;11.858;2023-03-01T05:08:19;26.80;;;12.93;;
16822;SDS011;8528;49.976;11.858;2023-03-01T05:10:50;22.83;;;11.63;;
16822;SDS011;8528;49.976;11.858;2023-03-01T05:13:19;25.60;;;13.40;;
16822;SDS011;8528;49.976;11.858;2023-03-01T05:15:47;24.30;;;12.93;;
16822;SDS011;8528;49.976;11.858;2023-03-01T05:18:19;24.10;;;13.20;;
16822;SDS011;8528;49.976;11.858;2023-03-01T05:20:47;26.97;;;13.50;;
16822;SDS011;8528;49.976;11.858;2023-03-01T05:23:13;27.47;;;13.43;;
16822;SDS011;8528;49.976;11.858;2023-03-01T05:25:40;23.13;;;12.90;;
16822;SDS011;8528;49.976;11.858;2023-03-01T05:28:10;24.93;;;12.70;;
16822;SDS011;8528;49.976;11.858;2023-03-01T05:30:38;22.87;;;13.07;;
16822;SDS011;8528;49.976;11.858;2023-03-01T05:33:05;32.20;;;13.23;;
16822;SDS011;8528;49.976;11.858;2023-03-01T05:35:40;23.03;;;12.90;;
16822;SDS011;8528;49.976;11.858;2023-03-01T05:38:09;24.87;;;13.03;;
16822;SDS011;8528;49.976;11.858;2023-03-01T05:40:44;23.20;;;12.83;;
16822;SDS011;8528;49.976;11.858;2023-03-01T05:43:13;27.10;;;13.33;;
16822;SDS011;8528;49.976;11.858;2023-03-01T05:45:42;27.20;;;13.50;;
16822;SDS011;8528;49.976;11.858;2023-03-01T05:48:09;24.67;;;13.63;;
16822;SDS011;8528;49.976;11.858;2023-03-01T05:50:38;26.93;;;13.07;;
16822;SDS011;8528;49.976;11.858;2023-03-01T05:53:09;25.80;;;13.03;;
16822;SDS011;8528;49.976;11.858;2023-03-01T05:55:38;30.20;;;13.43;;
16822;SDS011;8528;49.976;11.858;2023-03-01T05:58:06;25.47;;;12.87;;
16822;SDS011;8528;49.976;11.858;2023-03-01T06:00:35;26.57;;;13.53;;
16822;SDS011;8528;49.976;11.858;2023-03-01T06:03:02;27.10;;;13.10;;
16822;SDS011;8528;49.976;11.858;2023-03-01T06:05:29;27.77;;;14.23;;
16822;SDS011;8528;49.976;11.858;2023-03-01T06:07:59;28.73;;;12.90;;
16822;SDS011;8528;49.976;11.858;2023-03-01T06:10:27;25.27;;;12.40;;
16822;SDS011;8528;49.976;11.858;2023-03-01T06:12:55;26.50;;;13.20;;
16822;SDS011;8528;49.976;11.858;2023-03-01T06:15:22;29.23;;;14.23;;
16822;SDS011;8528;49.976;11.858;2023-03-01T06:17:49;26.97;;;13.10;;
16822;SDS011;8528;49.976;11.858;2023-03-01T06:20:18;31.00;;;12.23;;
16822;SDS011;8528;49.976;11.858;2023-03-01T06:22:46;29.30;;;14.07;;
16822;SDS011;8528;49.976;11.858;2023-03-01T06:25:16;25.43;;;13.20;;
16822;SDS011;8528;49.976;11.858;2023-03-01T06:27:45;26.70;;;13.83;;
16822;SDS011;8528;49.976;11.858;2023-03-01T06:30:13;29.13;;;13.70;;
16822;SDS011;8528;49.976;11.858;2023-03-01T06:32:41;30.57;;;13.73;;
16822;SDS011;8528;49.976;11.858;2023-03-01T06:35:12;28.33;;;13.23;;
16822;SDS011;8528;49.976;11.858;2023-03-01T06:37:40;28.23;;;13.57;;
16822;SDS011;8528;49.976;11.858;2023-03-01T06:40:08;25.83;;;13.20;;
16822;SDS011;8528;49.976;11.858;2023-03-01T06:42:40;27.83;;;15.53;;
16822;SDS011;8528;49.976;11.858;2023-03-01T06:45:09;30.03;;;14.17;;
16822;SDS011;8528;49.976;11.858;2023-03-01T06:47:36;24.93;;;14.17;;
16822;SDS011;8528;49.976;11.858;2023-03-01T06:50:03;25.63;;;13.57;;
16822;SDS011;8528;49.976;11.858;2023-03-01T06:52:30;26.23;;;13.97;;
16822;SDS011;8528;49.976;11.858;2023-03-01T06:54:58;25.70;;;13.60;;
16822;SDS011;8528;49.976;11.858;2023-03-01T06:57:25;26.80;;;14.63;;
16822;SDS011;8528;49.976;11.858;2023-03-01T06:59:52;30.27;;;14.73;;
16822;SDS011;8528;49.976;11.858;2023-03-01T07:02:19;25.60;;;13.40;;
16822;SDS011;8528;49.976;11.858;2023-03-01T07:04:46;27.10;;;14.37;;
16822;SDS011;8528;49.976;11.858;2023-03-01T07:07:15;27.90;;;13.00;;
16822;SDS011;8528;49.976;11.858;2023-03-01T07:09:44;22.13;;;12.60;;
16822;SDS011;8528;49.976;11.858;2023-03-01T07:12:11;25.33;;;13.70;;
16822;SDS011;8528;49.976;11.858;2023-03-01T07:14:38;22.27;;;12.93;;
16822;SDS011;8528;49.976;11.858;2023-03-01T07:17:05;23.00;;;13.23;;
16822;SDS011;8528;49.976;11.858;2023-03-01T07:19:32;24.33;;;14.07;;
16822;SDS011;8528;49.976;11.858;2023-03-01T07:21:59;22.43;;;13.57;;
16822;SDS011;8528;49.976;11.858;2023-03-01T07:24:26;21.70;;;13.60;;
16822;SDS011;8528;49.976;11.858;2023-03-01T07:26:53;18.50;;;12.73;;
16822;SDS011;8528;49.976;11.858;2023-03-01T07:29:19;17.40;;;12.23;;
16822;SDS011;8528;49.976;11.858;2023-03-01T07:31:46;15.57;;;12.07;;
16822;SDS011;8528;49.976;11.858;2023-03-01T07:34:13;19.23;;;13.77;;
16822;SDS011;8528;49.976;11.858;2023-03-01T07:36:40;16.70;;;13.13;;
16822;SDS011;8528;49.976;11.858;2023-03-01T07:39:09;18.07;;;12.90;;
16822;SDS011;8528;49.976;11.858;2023-03-01T07:41:36;18.10;;;13.13;;
16822;SDS011;8528;49.976;11.858;2023-03-01T07:44:03;15.40;;;13.57;;
16822;SDS011;8528;49.976;11.858;2023-03-01T07:46:30;17.23;;;13.90;;
16822;SDS011;8528;49.976;11.858;2023-03-01T07:48:58;17.20;;;12.80;;
16822;SDS011;8528;49.976;11.858;2023-03-01T07:51:24;16.70;;;13.77;;
16822;SDS011;8528;49.976;11.858;2023-03-01T07:53:51;15.57;;;12.03;;
16822;SDS011;8528;49.976;11.858;2023-03-01T07:56:18;16.50;;;13.40;;
16822;SDS011;8528;49.976;11.858;2023-03-01T07:58:45;16.30;;;12.93;;
16822;SDS011;8528;49.976;11.858;2023-03-01T08:01:16;15.33;;;12.50;;
16822;SDS011;8528;49.976;11.858;2023-03-01T08:03:45;17.63;;;13.70;;
16822;SDS011;8528;49.976;11.858;2023-03-01T08:06:12;14.83;;;13.10;;
16822;SDS011;8528;49.976;11.858;2023-03-01T08:08:41;16.47;;;14.53;;
16822;SDS011;8528;49.976;11.858;2023-03-01T08:11:10;15.97;;;14.27;;
16822;SDS011;8528;49.976;11.858;2023-03-01T08:13:38;16.60;;;14.23;;
16822;SDS011;8528;49.976;11.858;2023-03-01T08:16:10;14.40;;;12.43;;
16822;SDS011;8528;49.976;11.858;2023-03-01T08:18:38;15.53;;;13.83;;
16822;SDS011;8528;49.976;11.858;2023-03-01T08:21:13;15.80;;;13.87;;
16822;SDS011;8528;49.976;11.858;2023-03-01T08:23:41;15.70;;;14.03;;
16822;SDS011;8528;49.976;11.858;2023-03-01T08:26:10;14.50;;;13.10;;
16822;SDS011;8528;49.976;11.858;2023-03-01T08:28:42;16.33;;;14.40;;
16822;SDS011;8528;49.976;11.858;2023-03-01T08:31:14;14.17;;;12.67;;
16822;SDS011;8528;49.976;11.858;2023-03-01T08:33:53;17.77;;;14.23;;
16822;SDS011;8528;49.976;11.858;2023-03-01T08:36:22;14.80;;;13.30;;
16822;SDS011;8528;49.976;11.858;2023-03-01T08:38:50;15.73;;;14.00;;
16822;SDS011;8528;49.976;11.858;2023-03-01T08:41:17;16.40;;;13.43;;
16822;SDS011;8528;49.976;11.858;2023-03-01T08:43:45;15.27;;;12.70;;
16822;SDS011;8528;49.976;11.858;2023-03-01T08:46:12;15.77;;;13.10;;
16822;SDS011;8528;49.976;11.858;2023-03-01T08:48:39;14.37;;;12.00;;
16822;SDS011;8528;49.976;11.858;2023-03-01T08:51:13;14.33;;;12.70;;
16822;SDS011;8528;49.976;11.858;2023-03-01T08:53:52;17.67;;;13.50;;
16822;SDS011;8528;49.976;11.858;2023-03-01T08:56:19;14.03;;;12.47;;
16822;SDS011;8528;49.976;11.858;2023-03-01T08:58:47;16.23;;;13.03;;
16822;SDS011;8528;49.976;11.858;2023-03-01T09:01:15;14.70;;;12.63;;
16822;SDS011;8528;49.976;11.858;2023-03-01T09:03:44;16.70;;;14.43;;
16822;SDS011;8528;49.976;11.858;2023-03-01T09:06:11;16.17;;;13.47;;
16822;SDS011;8528;49.976;11.858;2023-03-01T09:08:39;15.63;;;13.77;;
16822;SDS011;8528;49.976;11.858;2023-03-01T09:11:09;14.45;;;11.90;;
16822;SDS011;8528;49.976;11.858;2023-03-01T09:13:37;14.07;;;12.67;;
16822;SDS011;8528;49.976;11.858;2023-03-01T09:16:04;14.97;;;12.30;;
16822;SDS011;8528;49.976;11.858;2023-03-01T09:18:34;15.30;;;13.70;;
16822;SDS011;8528;49.976;11.858;2023-03-01T09:21:03;13.47;;;11.73;;
16822;SDS011;8528;49.976;11.858;2023-03-01T09:23:34;15.93;;;12.87;;
16822;SDS011;8528;49.976;11.858;2023-03-01T09:26:02;14.97;;;13.47;;
16822;SDS011;8528;49.976;11.858;2023-03-01T09:28:29;13.47;;;12.07;;
16822;SDS011;8528;49.976;11.858;2023-03-01T09:31:00;14.57;;;13.03;;
16822;SDS011;8528;49.976;11.858;2023-03-01T09:33:28;14.10;;;12.00;;
16822;SDS011;8528;49.976;11.858;2023-03-01T09:35:57;14.30;;;12.80;;
16822;SDS011;8528;49.976;11.858;2023-03-01T09:38:29;17.15;;;12.48;;
16822;SDS011;8528;49.976;11.858;2023-03-01T09:40:56;16.42;;;12.38;;
16822;SDS011;8528;49.976;11.858;2023-03-01T09:46:22;17.08;;;12.80;;
16822;SDS011;8528;49.976;11.858;2023-03-01T09:48:52;13.82;;;12.30;;
16822;SDS011;8528;49.976;11.858;2023-03-01T09:51:30;15.27;;;13.03;;
16822;SDS011;8528;49.976;11.858;2023-03-01T09:54:00;21.73;;;12.17;;
16822;SDS011;8528;49.976;11.858;2023-03-01T10:04:49;15.53;;;13.63;;
16822;SDS011;8528;49.976;11.858;2023-03-01T10:09:58;15.60;;;12.40;;
16822;SDS011;8528;49.976;11.858;2023-03-01T10:12:27;16.80;;;13.03;;
16822;SDS011;8528;49.976;11.858;2023-03-01T10:17:50;16.13;;;12.63;;
16822;SDS011;8528;49.976;11.858;2023-03-01T10:22:59;15.35;;;12.88;;
16822;SDS011;8528;49.976;11.858;2023-03-01T10:30:44;16.40;;;13.27;;
16822;SDS011;8528;49.976;11.858;2023-03-01T10:33:22;14.73;;;13.00;;
16822;SDS011;8528;49.976;11.858;2023-03-01T10:35:51;14.03;;;12.50;;
16822;SDS011;8528;49.976;11.858;2023-03-01T10:38:18;17.63;;;13.63;;
16822;SDS011;8528;49.976;11.858;2023-03-01T10:40:51;14.20;;;12.27;;
16822;SDS011;8528;49.976;11.858;2023-03-01T10:43:32;16.80;;;13.40;;
16822;SDS011;8528;49.976;11.858;2023-03-01T10:51:44;14.10;;;12.70;;
16822;SDS011;8528;49.976;11.858;2023-03-01T10:54:31;13.90;;;12.50;;
16822;SDS011;8528;49.976;11.858;2023-03-01T10:57:00;16.03;;;12.63;;
16822;SDS011;8528;49.976;11.858;2023-03-01T10:59:30;14.03;;;12.13;;
16822;SDS011;8528;49.976;11.858;2023-03-01T11:07:29;15.73;;;11.70;;
16822;SDS011;8528;49.976;11.858;2023-03-01T11:09:56;20.37;;;12.80;;
16822;SDS011;8528;49.976;11.858;2023-03-01T11:12:22;16.43;;;12.50;;
16822;SDS011;8528;49.976;11.858;2023-03-01T11:14:51;13.67;;;12.27;;
16822;SDS011;8528;49.976;11.858;2023-03-01T11:17:30;16.93;;;12.53;;
16822;SDS011;8528;49.976;11.858;2023-03-01T11:25:41;14.30;;;12.00;;
16822;SDS011;8528;49.976;11.858;2023-03-01T11:28:13;13.73;;;11.97;;
16822;SDS011;8528;49.976;11.858;2023-03-01T11:33:49;55.23;;;16.33;;
16822;SDS011;8528;49.976;11.858;2023-03-01T11:36:30;14.47;;;12.83;;
16822;SDS011;8528;49.976;11.858;2023-03-01T11:39:18;15.17;;;13.13;;
16822;SDS011;8528;49.976;11.858;2023-03-01T11:45:10;16.93;;;12.43;;
16822;SDS011;8528;49.976;11.858;2023-03-01T11:47:42;14.37;;;11.80;;
16822;SDS011;8528;49.976;11.858;2023-03-01T11:50:59;12.43;;;10.83;;
16822;SDS011;8528;49.976;11.858;2023-03-01T11:53:48;15.37;;;11.90;;
16822;SDS011;8528;49.976;11.858;2023-03-01T11:56:45;14.87;;;12.10;;
16822;SDS011;8528;49.976;11.858;2023-03-01T11:59:30;13.30;;;11.93;;
16822;SDS011;8528;49.976;11.858;2023-03-01T12:05:38;16.57;;;12.73;;
16822;SDS011;8528;49.976;11.858;2023-03-01T12:08:41;14.57;;;12.13;;
16822;SDS011;8528;49.976;11.858;2023-03-01T12:28:48;13.13;;;10.80;;
16822;SDS011;8528;49.976;11.858;2023-03-01T12:34:22;18.50;;;12.67;;
16822;SDS011;8528;49.976;11.858;2023-03-01T12:40:01;15.50;;;12.50;;
16822;SDS011;8528;49.976;11.858;2023-03-01T12:42:54;16.43;;;11.40;;
16822;SDS011;8528;49.976;11.858;2023-03-01T12:46:10;14.20;;;11.07;;
16822;SDS011;8528;49.976;11.858;2023-03-01T12:52:01;13.33;;;11.87;;
16822;SDS011;8528;49.976;11.858;2023-03-01T12:54:52;13.40;;;11.53;;
16822;SDS011;8528;49.976;11.858;2023-03-01T12:57:27;20.57;;;12.90;;
16822;SDS011;8528;49.976;11.858;2023-03-01T13:06:02;15.67;;;11.17;;
16822;SDS011;8528;49.976;11.858;2023-03-01T13:11:30;15.13;;;11.07;;
16822;SDS011;8528;49.976;11.858;2023-03-01T13:14:43;12.33;;;10.47;;
16822;SDS011;8528;49.976;11.858;2023-03-01T13:16:49;15.43;;;10.90;;
16822;SDS011;8528;49.976;11.858;2023-03-01T13:19:21;13.53;;;10.90;;
16822;SDS011;8528;49.976;11.858;2023-03-01T13:21:55;14.03;;;11.33;;
16822;SDS011;8528;49.976;11.858;2023-03-01T13:24:40;16.20;;;11.10;;
16822;SDS011;8528;49.976;11.858;2023-03-01T13:27:21;16.43;;;10.60;;
16822;SDS011;8528;49.976;11.858;2023-03-01T13:29:55;17.67;;;11.23;;
16822;SDS011;8528;49.976;11.858;2023-03-01T13:37:41;14.00;;;11.27;;
16822;SDS011;8528;49.976;11.858;2023-03-01T13:42:48;14.33;;;10.53;;
16822;SDS011;8528;49.976;11.858;2023-03-01T13:45:36;15.27;;;10.70;;
16822;SDS011;8528;49.976;11.858;2023-03-01T13:48:16;13.30;;;9.83;;
16822;SDS011;8528;49.976;11.858;2023-03-01T13:50:54;12.70;;;9.93;;
16822;SDS011;8528;49.976;11.858;2023-03-01T13:53:25;13.17;;;10.97;;
16822;SDS011;8528;49.976;11.858;2023-03-01T13:55:58;13.07;;;10.27;;
16822;SDS011;8528;49.976;11.858;2023-03-01T13:58:43;20.43;;;10.97;;
16822;SDS011;8528;49.976;11.858;2023-03-01T14:01:29;16.47;;;11.80;;
16822;SDS011;8528;49.976;11.858;2023-03-01T14:03:59;20.17;;;10.73;;
16822;SDS011;8528;49.976;11.858;2023-03-01T14:06:28;14.07;;;10.30;;
16822;SDS011;8528;49.976;11.858;2023-03-01T14:09:15;12.07;;;10.37;;
16822;SDS011;8528;49.976;11.858;2023-03-01T14:14:35;13.57;;;10.17;;
16822;SDS011;8528;49.976;11.858;2023-03-01T14:17:27;12.37;;;9.87;;
16822;SDS011;8528;49.976;11.858;2023-03-01T14:19:57;14.13;;;9.67;;
16822;SDS011;8528;49.976;11.858;2023-03-01T14:22:29;13.47;;;10.03;;
16822;SDS011;8528;49.976;11.858;2023-03-01T14:25:45;11.63;;;9.33;;
16822;SDS011;8528;49.976;11.858;2023-03-01T14:30:48;13.30;;;8.87;;
16822;SDS011;8528;49.976;11.858;2023-03-01T14:33:21;17.83;;;10.70;;
16822;SDS011;8528;49.976;11.858;2023-03-01T14:35:54;14.70;;;10.13;;
16822;SDS011;8528;49.976;11.858;2023-03-01T14:38:33;16.50;;;10.27;;
16822;SDS011;8528;49.976;11.858;2023-03-01T14:41:12;15.97;;;11.00;;
16822;SDS011;8528;49.976;11.858;2023-03-01T14:43:46;15.67;;;10.53;;
16822;SDS011;8528;49.976;11.858;2023-03-01T14:46:37;18.63;;;11.93;;
16822;SDS011;8528;49.976;11.858;2023-03-01T14:51:52;15.37;;;10.23;;
16822;SDS011;8528;49.976;11.858;2023-03-01T14:57:01;14.47;;;9.73;;
16822;SDS011;8528;49.976;11.858;2023-03-01T14:59:28;15.00;;;10.20;;
16822;SDS011;8528;49.976;11.858;2023-03-01T15:01:56;14.97;;;9.77;;
16822;SDS011;8528;49.976;11.858;2023-03-01T15:04:24;14.63;;;8.87;;
16822;SDS011;8528;49.976;11.858;2023-03-01T15:06:54;16.73;;;11.03;;
16822;SDS011;8528;49.976;11.858;2023-03-01T15:09:32;15.07;;;10.47;;
16822;SDS011;8528;49.976;11.858;2023-03-01T15:12:45;15.13;;;10.43;;
16822;SDS011;8528;49.976;11.858;2023-03-01T15:14:53;16.37;;;10.47;;
16822;SDS011;8528;49.976;11.858;2023-03-01T15:17:31;14.87;;;9.93;;
16822;SDS011;8528;49.976;11.858;2023-03-01T15:20:13;17.73;;;10.97;;
16822;SDS011;8528;49.976;11.858;2023-03-01T15:22:44;15.37;;;11.07;;
16822;SDS011;8528;49.976;11.858;2023-03-01T15:25:18;20.00;;;12.13;;
16822;SDS011;8528;49.976;11.858;2023-03-01T15:27:46;16.60;;;10.63;;
16822;SDS011;8528;49.976;11.858;2023-03-01T15:30:21;16.43;;;9.90;;
16822;SDS011;8528;49.976;11.858;2023-03-01T15:35:56;15.70;;;11.40;;
16822;SDS011;8528;49.976;11.858;2023-03-01T15:38:26;20.43;;;10.80;;
16822;SDS011;8528;49.976;11.858;2023-03-01T15:41:19;19.30;;;11.60;;
16822;SDS011;8528;49.976;11.858;2023-03-01T15:44:15;16.60;;;11.40;;
16822;SDS011;8528;49.976;11.858;2023-03-01T15:47:22;17.93;;;11.67;;
16822;SDS011;8528;49.976;11.858;2023-03-01T15:49:56;17.40;;;12.03;;
16822;SDS011;8528;49.976;11.858;2023-03-01T15:52:33;18.77;;;12.03;;
16822;SDS011;8528;49.976;11.858;2023-03-01T15:55:10;20.30;;;12.27;;
16822;SDS011;8528;49.976;11.858;2023-03-01T15:57:46;17.53;;;9.87;;
16822;SDS011;8528;49.976;11.858;2023-03-01T16:00:14;16.07;;;10.50;;
16822;SDS011;8528;49.976;11.858;2023-03-01T16:02:44;17.30;;;10.30;;
16822;SDS011;8528;49.976;11.858;2023-03-01T16:05:30;20.10;;;12.70;;
16822;SDS011;8528;49.976;11.858;2023-03-01T16:07:58;17.30;;;11.17;;
16822;SDS011;8528;49.976;11.858;2023-03-01T16:10:26;19.33;;;11.07;;
16822;SDS011;8528;49.976;11.858;2023-03-01T16:12:54;19.67;;;10.97;;
16822;SDS011;8528;49.976;11.858;2023-03-01T16:15:22;20.60;;;11.20;;
16822;SDS011;8528;49.976;11.858;2023-03-01T16:17:58;17.33;;;11.53;;
16822;SDS011;8528;49.976;11.858;2023-03-01T16:20:24;21.37;;;10.83;;
16822;SDS011;8528;49.976;11.858;2023-03-01T16:22:59;17.70;;;11.40;;
16822;SDS011;8528;49.976;11.858;2023-03-01T16:25:27;19.37;;;11.80;;
16822;SDS011;8528;49.976;11.858;2023-03-01T16:27:55;17.03;;;11.13;;
16822;SDS011;8528;49.976;11.858;2023-03-01T16:30:24;20.80;;;11.80;;
16822;SDS011;8528;49.976;11.858;2023-03-01T16:32:52;18.03;;;11.40;;
16822;SDS011;8528;49.976;11.858;2023-03-01T16:35:20;16.53;;;11.30;;
16822;SDS011;8528;49.976;11.858;2023-03-01T16:37:47;20.73;;;12.23;;
16822;SDS011;8528;49.976;11.858;2023-03-01T16:40:19;20.87;;;12.60;;